sensor_id;sensor_type;location;lat;lon;timestamp;temperature;humidity
66506;HTU21D;53332;51.082;5.832;2024-03-22T00:00:54;12.64;118.99
66506;HTU21D;53332;51.082;5.832;2024-03-22T00:03:19;12.64;118.99
66506;HTU21D;53332;51.082;5.832;2024-03-22T00:05:45;12.63;118.99
66506;HTU21D;53332;51.082;5.832;2024-03-22T00:08:11;12.66;118.99
66506;HTU21D;53332;51.082;5.832;2024-03-22T00:10:36;12.65;118.99
66506;HTU21D;53332;51.082;5.832;2024-03-22T00:13:02;12.67;118.99
66506;HTU21D;53332;51.082;5.832;2024-03-22T00:15:27;12.69;118.99
66506;HTU21D;53332;51.082;5.832;2024-03-22T00:17:53;12.66;118.99
66506;HTU21D;53332;51.082;5.832;2024-03-22T00:20:18;12.67;118.99
66506;HTU21D;53332;51.082;5.832;2024-03-22T00:22:44;12.66;118.99
66506;HTU21D;53332;51.082;5.832;2024-03-22T00:25:09;12.66;118.99
66506;HTU21D;53332;51.082;5.832;2024-03-22T00:27:35;12.66;118.99
66506;HTU21D;53332;51.082;5.832;2024-03-22T00:30:00;12.66;118.99
66506;HTU21D;53332;51.082;5.832;2024-03-22T00:32:26;12.67;118.99
66506;HTU21D;53332;51.082;5.832;2024-03-22T00:34:52;12.69;118.99
66506;HTU21D;53332;51.082;5.832;2024-03-22T00:37:17;12.71;118.99
66506;HTU21D;53332;51.082;5.832;2024-03-22T00:39:43;12.69;118.99
66506;HTU21D;53332;51.082;5.832;2024-03-22T00:42:09;12.70;118.99
66506;HTU21D;53332;51.082;5.832;2024-03-22T00:44:34;12.70;118.99
66506;HTU21D;53332;51.082;5.832;2024-03-22T00:47:00;12.69;118.99
66506;HTU21D;53332;51.082;5.832;2024-03-22T00:49:28;12.70;118.99
66506;HTU21D;53332;51.082;5.832;2024-03-22T00:51:54;12.67;118.99
66506;HTU21D;53332;51.082;5.832;2024-03-22T00:54:22;12.69;118.99
66506;HTU21D;53332;51.082;5.832;2024-03-22T00:56:47;12.70;118.99
66506;HTU21D;53332;51.082;5.832;2024-03-22T00:59:13;12.73;118.99
66506;HTU21D;53332;51.082;5.832;2024-03-22T01:01:38;12.73;118.99
66506;HTU21D;53332;51.082;5.832;2024-03-22T01:04:04;12.74;118.99
66506;HTU21D;53332;51.082;5.832;2024-03-22T01:06:29;12.75;118.99
66506;HTU21D;53332;51.082;5.832;2024-03-22T01:08:55;12.78;118.99
66506;HTU21D;53332;51.082;5.832;2024-03-22T01:11:21;12.79;118.99
66506;HTU21D;53332;51.082;5.832;2024-03-22T01:13:46;12.79;118.99
66506;HTU21D;53332;51.082;5.832;2024-03-22T01:16:12;12.78;118.99
66506;HTU21D;53332;51.082;5.832;2024-03-22T01:18:37;12.77;118.99
66506;HTU21D;53332;51.082;5.832;2024-03-22T01:21:03;12.78;118.99
66506;HTU21D;53332;51.082;5.832;2024-03-22T01:23:30;12.79;118.99
66506;HTU21D;53332;51.082;5.832;2024-03-22T01:25:56;12.79;118.99
66506;HTU21D;53332;51.082;5.832;2024-03-22T01:28:21;12.82;118.99
66506;HTU21D;53332;51.082;5.832;2024-03-22T01:30:47;12.82;118.99
66506;HTU21D;53332;51.082;5.832;2024-03-22T01:33:13;12.81;118.99
66506;HTU21D;53332;51.082;5.832;2024-03-22T01:35:38;12.81;118.99
66506;HTU21D;53332;51.082;5.832;2024-03-22T01:38:04;12.81;118.99
66506;HTU21D;53332;51.082;5.832;2024-03-22T01:40:29;12.82;118.99
66506;HTU21D;53332;51.082;5.832;2024-03-22T01:42:56;12.84;118.99
66506;HTU21D;53332;51.082;5.832;2024-03-22T01:45:21;12.85;118.99
66506;HTU21D;53332;51.082;5.832;2024-03-22T01:47:50;12.84;118.99
66506;HTU21D;53332;51.082;5.832;2024-03-22T01:50:16;12.88;118.99
66506;HTU21D;53332;51.082;5.832;2024-03-22T01:52:42;12.91;118.99
66506;HTU21D;53332;51.082;5.832;2024-03-22T01:55:08;12.91;118.99
66506;HTU21D;53332;51.082;5.832;2024-03-22T01:57:33;12.90;118.99
66506;HTU21D;53332;51.082;5.832;2024-03-22T01:59:59;12.89;118.99
66506;HTU21D;53332;51.082;5.832;2024-03-22T02:02:25;12.90;118.99
66506;HTU21D;53332;51.082;5.832;2024-03-22T02:04:51;12.91;118.99
66506;HTU21D;53332;51.082;5.832;2024-03-22T02:07:17;12.90;118.99
66506;HTU21D;53332;51.082;5.832;2024-03-22T02:09:43;12.92;118.99
66506;HTU21D;53332;51.082;5.832;2024-03-22T02:12:09;12.91;118.99
66506;HTU21D;53332;51.082;5.832;2024-03-22T02:14:34;12.93;118.99
66506;HTU21D;53332;51.082;5.832;2024-03-22T02:17:00;12.92;118.99
66506;HTU21D;53332;51.082;5.832;2024-03-22T02:19:25;12.94;118.99
66506;HTU21D;53332;51.082;5.832;2024-03-22T02:21:51;12.95;118.99
66506;HTU21D;53332;51.082;5.832;2024-03-22T02:24:16;12.94;118.99
66506;HTU21D;53332;51.082;5.832;2024-03-22T02:26:42;12.95;118.99
66506;HTU21D;53332;51.082;5.832;2024-03-22T02:29:08;12.94;118.99
66506;HTU21D;53332;51.082;5.832;2024-03-22T02:31:33;12.95;118.99
66506;HTU21D;53332;51.082;5.832;2024-03-22T02:33:59;12.96;118.99
66506;HTU21D;53332;51.082;5.832;2024-03-22T02:36:24;12.96;118.99
66506;HTU21D;53332;51.082;5.832;2024-03-22T02:38:50;12.97;118.99
66506;HTU21D;53332;51.082;5.832;2024-03-22T02:41:15;12.96;118.99
66506;HTU21D;53332;51.082;5.832;2024-03-22T02:43:41;12.96;118.99
66506;HTU21D;53332;51.082;5.832;2024-03-22T02:46:06;12.96;118.99
66506;HTU21D;53332;51.082;5.832;2024-03-22T02:48:32;12.97;118.99
66506;HTU21D;53332;51.082;5.832;2024-03-22T02:50:57;12.97;118.99
66506;HTU21D;53332;51.082;5.832;2024-03-22T02:53:23;12.99;118.99
66506;HTU21D;53332;51.082;5.832;2024-03-22T02:55:48;13.00;118.99
66506;HTU21D;53332;51.082;5.832;2024-03-22T02:58:14;12.97;118.99
66506;HTU21D;53332;51.082;5.832;2024-03-22T03:00:40;12.99;118.99
66506;HTU21D;53332;51.082;5.832;2024-03-22T03:03:06;12.99;118.99
66506;HTU21D;53332;51.082;5.832;2024-03-22T03:05:32;12.96;118.99
66506;HTU21D;53332;51.082;5.832;2024-03-22T03:07:57;12.97;118.99
66506;HTU21D;53332;51.082;5.832;2024-03-22T03:10:23;12.94;118.99
66506;HTU21D;53332;51.082;5.832;2024-03-22T03:12:49;12.93;118.99
66506;HTU21D;53332;51.082;5.832;2024-03-22T03:15:17;12.92;118.99
66506;HTU21D;53332;51.082;5.832;2024-03-22T03:17:42;12.91;118.99
66506;HTU21D;53332;51.082;5.832;2024-03-22T03:20:08;12.89;118.99
66506;HTU21D;53332;51.082;5.832;2024-03-22T03:22:36;12.86;118.99
66506;HTU21D;53332;51.082;5.832;2024-03-22T03:25:03;12.84;118.99
66506;HTU21D;53332;51.082;5.832;2024-03-22T03:27:30;12.86;118.99
66506;HTU21D;53332;51.082;5.832;2024-03-22T03:29:55;12.82;118.99
66506;HTU21D;53332;51.082;5.832;2024-03-22T03:32:21;12.79;118.99
66506;HTU21D;53332;51.082;5.832;2024-03-22T03:34:46;12.76;118.99
66506;HTU21D;53332;51.082;5.832;2024-03-22T03:37:12;12.77;118.99
66506;HTU21D;53332;51.082;5.832;2024-03-22T03:39:37;12.75;118.99
66506;HTU21D;53332;51.082;5.832;2024-03-22T03:42:03;12.72;118.99
66506;HTU21D;53332;51.082;5.832;2024-03-22T03:44:28;12.72;118.99
66506;HTU21D;53332;51.082;5.832;2024-03-22T03:46:54;12.71;118.99
66506;HTU21D;53332;51.082;5.832;2024-03-22T03:49:19;12.72;118.99
66506;HTU21D;53332;51.082;5.832;2024-03-22T03:51:44;12.72;118.99
66506;HTU21D;53332;51.082;5.832;2024-03-22T03:54:10;12.71;118.99
66506;HTU21D;53332;51.082;5.832;2024-03-22T03:56:35;12.72;118.99
66506;HTU21D;53332;51.082;5.832;2024-03-22T03:59:01;12.72;118.99
66506;HTU21D;53332;51.082;5.832;2024-03-22T04:01:27;12.71;118.99
66506;HTU21D;53332;51.082;5.832;2024-03-22T04:03:52;12.70;118.99
66506;HTU21D;53332;51.082;5.832;2024-03-22T04:06:18;12.67;118.99
66506;HTU21D;53332;51.082;5.832;2024-03-22T04:08:43;12.67;118.99
66506;HTU21D;53332;51.082;5.832;2024-03-22T04:11:09;12.65;118.99
66506;HTU21D;53332;51.082;5.832;2024-03-22T04:13:35;12.64;118.99
66506;HTU21D;53332;51.082;5.832;2024-03-22T04:16:01;12.64;118.99
66506;HTU21D;53332;51.082;5.832;2024-03-22T04:18:26;12.64;118.99
66506;HTU21D;53332;51.082;5.832;2024-03-22T04:20:56;12.65;118.99
66506;HTU21D;53332;51.082;5.832;2024-03-22T04:23:23;12.65;118.99
66506;HTU21D;53332;51.082;5.832;2024-03-22T04:26:07;12.65;118.99
66506;HTU21D;53332;51.082;5.832;2024-03-22T04:28:33;12.67;118.99
66506;HTU21D;53332;51.082;5.832;2024-03-22T04:31:07;12.69;118.99
66506;HTU21D;53332;51.082;5.832;2024-03-22T04:33:36;12.70;118.99
66506;HTU21D;53332;51.082;5.832;2024-03-22T04:36:02;12.69;118.99
66506;HTU21D;53332;51.082;5.832;2024-03-22T04:38:29;12.71;118.99
66506;HTU21D;53332;51.082;5.832;2024-03-22T04:40:55;12.71;118.99
66506;HTU21D;53332;51.082;5.832;2024-03-22T04:43:23;12.73;118.99
66506;HTU21D;53332;51.082;5.832;2024-03-22T04:45:49;12.72;118.99
66506;HTU21D;53332;51.082;5.832;2024-03-22T04:48:20;12.71;118.99
66506;HTU21D;53332;51.082;5.832;2024-03-22T04:50:50;12.71;118.99
66506;HTU21D;53332;51.082;5.832;2024-03-22T04:53:17;12.70;118.99
66506;HTU21D;53332;51.082;5.832;2024-03-22T04:55:46;12.71;118.99
66506;HTU21D;53332;51.082;5.832;2024-03-22T04:58:19;12.72;118.99
66506;HTU21D;53332;51.082;5.832;2024-03-22T05:00:46;12.71;118.99
66506;HTU21D;53332;51.082;5.832;2024-03-22T05:03:12;12.73;118.99
66506;HTU21D;53332;51.082;5.832;2024-03-22T05:05:38;12.74;118.99
66506;HTU21D;53332;51.082;5.832;2024-03-22T05:08:06;12.72;118.99
66506;HTU21D;53332;51.082;5.832;2024-03-22T05:10:31;12.73;118.99
66506;HTU21D;53332;51.082;5.832;2024-03-22T05:12:57;12.73;118.99
66506;HTU21D;53332;51.082;5.832;2024-03-22T05:15:23;12.74;118.99
66506;HTU21D;53332;51.082;5.832;2024-03-22T05:17:51;12.75;118.99
66506;HTU21D;53332;51.082;5.832;2024-03-22T05:20:17;12.74;118.99
66506;HTU21D;53332;51.082;5.832;2024-03-22T05:22:42;12.74;118.99
66506;HTU21D;53332;51.082;5.832;2024-03-22T05:25:08;12.73;118.99
66506;HTU21D;53332;51.082;5.832;2024-03-22T05:27:35;12.74;118.99
66506;HTU21D;53332;51.082;5.832;2024-03-22T05:30:00;12.73;118.99
66506;HTU21D;53332;51.082;5.832;2024-03-22T05:32:26;12.75;118.99
66506;HTU21D;53332;51.082;5.832;2024-03-22T05:34:52;12.75;118.99
66506;HTU21D;53332;51.082;5.832;2024-03-22T05:37:18;12.75;118.99
66506;HTU21D;53332;51.082;5.832;2024-03-22T05:39:43;12.76;118.99
66506;HTU21D;53332;51.082;5.832;2024-03-22T05:42:09;12.77;118.99
66506;HTU21D;53332;51.082;5.832;2024-03-22T05:44:35;12.76;118.99
66506;HTU21D;53332;51.082;5.832;2024-03-22T05:47:01;12.79;118.99
66506;HTU21D;53332;51.082;5.832;2024-03-22T05:49:27;12.79;118.99
66506;HTU21D;53332;51.082;5.832;2024-03-22T05:51:53;12.78;118.99
66506;HTU21D;53332;51.082;5.832;2024-03-22T05:54:18;12.79;118.99
66506;HTU21D;53332;51.082;5.832;2024-03-22T05:56:45;12.82;118.99
66506;HTU21D;53332;51.082;5.832;2024-03-22T05:59:11;12.85;118.99
66506;HTU21D;53332;51.082;5.832;2024-03-22T06:01:37;12.84;118.99
66506;HTU21D;53332;51.082;5.832;2024-03-22T06:04:04;12.85;118.99
66506;HTU21D;53332;51.082;5.832;2024-03-22T06:06:29;12.86;118.99
66506;HTU21D;53332;51.082;5.832;2024-03-22T06:08:55;12.87;118.99
66506;HTU21D;53332;51.082;5.832;2024-03-22T06:11:22;12.89;118.99
66506;HTU21D;53332;51.082;5.832;2024-03-22T06:13:48;12.90;118.99
66506;HTU21D;53332;51.082;5.832;2024-03-22T06:16:14;12.92;118.99
66506;HTU21D;53332;51.082;5.832;2024-03-22T06:18:39;12.92;118.99
66506;HTU21D;53332;51.082;5.832;2024-03-22T06:21:05;12.92;118.99
66506;HTU21D;53332;51.082;5.832;2024-03-22T06:23:32;12.92;118.99
66506;HTU21D;53332;51.082;5.832;2024-03-22T06:25:58;12.92;118.99
66506;HTU21D;53332;51.082;5.832;2024-03-22T06:28:25;12.95;118.99
66506;HTU21D;53332;51.082;5.832;2024-03-22T06:30:51;12.94;118.99
66506;HTU21D;53332;51.082;5.832;2024-03-22T06:33:16;12.96;118.99
66506;HTU21D;53332;51.082;5.832;2024-03-22T06:35:42;12.99;118.99
66506;HTU21D;53332;51.082;5.832;2024-03-22T06:38:07;13.00;118.99
66506;HTU21D;53332;51.082;5.832;2024-03-22T06:40:34;13.01;118.99
66506;HTU21D;53332;51.082;5.832;2024-03-22T06:42:59;13.03;118.99
66506;HTU21D;53332;51.082;5.832;2024-03-22T06:45:25;13.05;118.99
66506;HTU21D;53332;51.082;5.832;2024-03-22T06:47:51;13.09;118.99
66506;HTU21D;53332;51.082;5.832;2024-03-22T06:50:17;13.10;118.99
66506;HTU21D;53332;51.082;5.832;2024-03-22T06:52:52;13.14;118.99
66506;HTU21D;53332;51.082;5.832;2024-03-22T06:55:19;13.15;118.99
66506;HTU21D;53332;51.082;5.832;2024-03-22T06:57:46;13.18;118.99
66506;HTU21D;53332;51.082;5.832;2024-03-22T07:00:13;13.19;118.99
66506;HTU21D;53332;51.082;5.832;2024-03-22T07:02:39;13.20;118.99
66506;HTU21D;53332;51.082;5.832;2024-03-22T07:05:08;13.20;118.99
66506;HTU21D;53332;51.082;5.832;2024-03-22T07:07:37;13.25;118.99
66506;HTU21D;53332;51.082;5.832;2024-03-22T07:10:04;13.27;118.99
66506;HTU21D;53332;51.082;5.832;2024-03-22T07:12:33;13.27;118.99
66506;HTU21D;53332;51.082;5.832;2024-03-22T07:15:02;13.27;118.99
66506;HTU21D;53332;51.082;5.832;2024-03-22T07:17:28;13.31;118.99
66506;HTU21D;53332;51.082;5.832;2024-03-22T07:19:54;13.33;118.99
66506;HTU21D;53332;51.082;5.832;2024-03-22T07:22:21;13.33;118.99
66506;HTU21D;53332;51.082;5.832;2024-03-22T07:24:47;13.34;118.99
66506;HTU21D;53332;51.082;5.832;2024-03-22T07:27:13;13.35;118.99
66506;HTU21D;53332;51.082;5.832;2024-03-22T07:29:42;13.36;118.99
66506;HTU21D;53332;51.082;5.832;2024-03-22T07:32:07;13.38;118.99
66506;HTU21D;53332;51.082;5.832;2024-03-22T07:34:33;13.38;118.99
66506;HTU21D;53332;51.082;5.832;2024-03-22T07:36:59;13.41;118.99
66506;HTU21D;53332;51.082;5.832;2024-03-22T07:39:24;13.44;118.99
66506;HTU21D;53332;51.082;5.832;2024-03-22T07:41:50;13.44;118.99
66506;HTU21D;53332;51.082;5.832;2024-03-22T07:44:16;13.48;118.99
66506;HTU21D;53332;51.082;5.832;2024-03-22T07:46:50;13.48;118.99
66506;HTU21D;53332;51.082;5.832;2024-03-22T07:49:15;13.49;118.99
66506;HTU21D;53332;51.082;5.832;2024-03-22T07:51:41;13.49;118.99
66506;HTU21D;53332;51.082;5.832;2024-03-22T07:54:06;13.51;118.99
66506;HTU21D;53332;51.082;5.832;2024-03-22T07:56:32;13.52;118.99
66506;HTU21D;53332;51.082;5.832;2024-03-22T07:58:58;13.53;118.99
66506;HTU21D;53332;51.082;5.832;2024-03-22T08:01:24;13.52;118.99
66506;HTU21D;53332;51.082;5.832;2024-03-22T08:03:51;13.52;118.99
66506;HTU21D;53332;51.082;5.832;2024-03-22T08:06:17;13.53;118.99
66506;HTU21D;53332;51.082;5.832;2024-03-22T08:08:43;13.52;118.99
66506;HTU21D;53332;51.082;5.832;2024-03-22T08:11:09;13.52;118.99
66506;HTU21D;53332;51.082;5.832;2024-03-22T08:13:35;13.50;118.99
66506;HTU21D;53332;51.082;5.832;2024-03-22T08:16:01;13.49;118.99
66506;HTU21D;53332;51.082;5.832;2024-03-22T08:18:26;13.50;118.99
66506;HTU21D;53332;51.082;5.832;2024-03-22T08:20:52;13.52;118.99
66506;HTU21D;53332;51.082;5.832;2024-03-22T08:23:17;13.49;118.99
66506;HTU21D;53332;51.082;5.832;2024-03-22T08:25:46;13.53;118.99
66506;HTU21D;53332;51.082;5.832;2024-03-22T08:28:11;13.58;118.99
66506;HTU21D;53332;51.082;5.832;2024-03-22T08:30:39;13.66;118.99
66506;HTU21D;53332;51.082;5.832;2024-03-22T08:33:05;13.71;118.99
66506;HTU21D;53332;51.082;5.832;2024-03-22T08:35:30;13.78;118.99
66506;HTU21D;53332;51.082;5.832;2024-03-22T08:37:56;13.80;118.99
66506;HTU21D;53332;51.082;5.832;2024-03-22T08:40:22;13.81;118.99
66506;HTU21D;53332;51.082;5.832;2024-03-22T08:42:48;13.89;118.99
66506;HTU21D;53332;51.082;5.832;2024-03-22T08:45:14;13.93;118.99
66506;HTU21D;53332;51.082;5.832;2024-03-22T08:47:42;14.03;118.99
66506;HTU21D;53332;51.082;5.832;2024-03-22T08:50:08;14.07;118.99
66506;HTU21D;53332;51.082;5.832;2024-03-22T08:52:34;14.12;118.99
66506;HTU21D;53332;51.082;5.832;2024-03-22T08:55:01;14.22;118.99
66506;HTU21D;53332;51.082;5.832;2024-03-22T08:57:27;14.27;118.99
66506;HTU21D;53332;51.082;5.832;2024-03-22T08:59:52;14.30;118.99
66506;HTU21D;53332;51.082;5.832;2024-03-22T09:02:18;14.34;118.99
66506;HTU21D;53332;51.082;5.832;2024-03-22T09:04:43;14.28;118.99
66506;HTU21D;53332;51.082;5.832;2024-03-22T09:07:09;14.18;118.99
66506;HTU21D;53332;51.082;5.832;2024-03-22T09:09:34;14.13;118.99
66506;HTU21D;53332;51.082;5.832;2024-03-22T09:12:00;14.08;118.99
66506;HTU21D;53332;51.082;5.832;2024-03-22T09:14:25;14.06;118.99
66506;HTU21D;53332;51.082;5.832;2024-03-22T09:16:51;14.01;118.99
66506;HTU21D;53332;51.082;5.832;2024-03-22T09:19:17;14.03;118.99
66506;HTU21D;53332;51.082;5.832;2024-03-22T09:21:43;13.99;118.99
66506;HTU21D;53332;51.082;5.832;2024-03-22T09:24:08;14.04;118.99
66506;HTU21D;53332;51.082;5.832;2024-03-22T09:26:35;14.00;118.99
66506;HTU21D;53332;51.082;5.832;2024-03-22T09:29:00;14.00;118.99
66506;HTU21D;53332;51.082;5.832;2024-03-22T09:31:26;14.01;118.99
66506;HTU21D;53332;51.082;5.832;2024-03-22T09:33:52;14.03;118.99
66506;HTU21D;53332;51.082;5.832;2024-03-22T09:36:18;14.01;118.99
66506;HTU21D;53332;51.082;5.832;2024-03-22T09:38:43;14.04;118.99
66506;HTU21D;53332;51.082;5.832;2024-03-22T09:41:09;14.10;118.99
66506;HTU21D;53332;51.082;5.832;2024-03-22T09:43:35;14.09;118.99
66506;HTU21D;53332;51.082;5.832;2024-03-22T09:46:01;14.11;118.99
66506;HTU21D;53332;51.082;5.832;2024-03-22T09:48:29;14.12;118.99
66506;HTU21D;53332;51.082;5.832;2024-03-22T09:50:54;14.17;118.99
66506;HTU21D;53332;51.082;5.832;2024-03-22T09:53:21;14.19;118.99
66506;HTU21D;53332;51.082;5.832;2024-03-22T09:55:52;14.19;118.99
66506;HTU21D;53332;51.082;5.832;2024-03-22T09:58:23;14.21;118.99
66506;HTU21D;53332;51.082;5.832;2024-03-22T10:00:48;14.15;118.99
66506;HTU21D;53332;51.082;5.832;2024-03-22T10:03:14;14.19;118.99
66506;HTU21D;53332;51.082;5.832;2024-03-22T10:05:41;14.20;118.99
66506;HTU21D;53332;51.082;5.832;2024-03-22T10:08:06;14.15;118.99
66506;HTU21D;53332;51.082;5.832;2024-03-22T10:10:33;14.12;118.99
66506;HTU21D;53332;51.082;5.832;2024-03-22T10:13:03;14.17;118.99
66506;HTU21D;53332;51.082;5.832;2024-03-22T10:15:32;14.18;118.99
66506;HTU21D;53332;51.082;5.832;2024-03-22T10:17:58;14.22;118.99
66506;HTU21D;53332;51.082;5.832;2024-03-22T10:20:23;14.24;118.99
66506;HTU21D;53332;51.082;5.832;2024-03-22T10:22:55;14.22;118.99
66506;HTU21D;53332;51.082;5.832;2024-03-22T10:25:22;14.19;118.99
66506;HTU21D;53332;51.082;5.832;2024-03-22T10:27:48;14.21;118.99
66506;HTU21D;53332;51.082;5.832;2024-03-22T10:30:16;14.22;118.99
66506;HTU21D;53332;51.082;5.832;2024-03-22T10:32:43;14.19;118.99
66506;HTU21D;53332;51.082;5.832;2024-03-22T10:35:12;14.21;118.99
66506;HTU21D;53332;51.082;5.832;2024-03-22T10:37:39;14.26;118.99
66506;HTU21D;53332;51.082;5.832;2024-03-22T10:40:05;14.26;118.99
66506;HTU21D;53332;51.082;5.832;2024-03-22T10:42:39;14.23;118.99
66506;HTU21D;53332;51.082;5.832;2024-03-22T10:45:07;14.26;118.99
66506;HTU21D;53332;51.082;5.832;2024-03-22T10:47:35;14.32;118.99
66506;HTU21D;53332;51.082;5.832;2024-03-22T10:52:38;14.52;118.99
66506;HTU21D;53332;51.082;5.832;2024-03-22T10:55:15;14.53;118.99
66506;HTU21D;53332;51.082;5.832;2024-03-22T10:57:43;14.57;118.99
66506;HTU21D;53332;51.082;5.832;2024-03-22T11:00:09;14.57;118.99
66506;HTU21D;53332;51.082;5.832;2024-03-22T11:02:36;14.56;118.99
66506;HTU21D;53332;51.082;5.832;2024-03-22T11:05:03;14.49;118.99
66506;HTU21D;53332;51.082;5.832;2024-03-22T11:07:32;14.43;118.99
66506;HTU21D;53332;51.082;5.832;2024-03-22T11:09:58;14.40;118.99
66506;HTU21D;53332;51.082;5.832;2024-03-22T11:12:26;14.39;118.99
66506;HTU21D;53332;51.082;5.832;2024-03-22T11:14:53;14.36;118.99
66506;HTU21D;53332;51.082;5.832;2024-03-22T11:17:19;14.32;118.99
66506;HTU21D;53332;51.082;5.832;2024-03-22T11:19:46;14.33;118.99
66506;HTU21D;53332;51.082;5.832;2024-03-22T11:22:12;14.27;118.99
66506;HTU21D;53332;51.082;5.832;2024-03-22T11:24:38;14.25;118.99
66506;HTU21D;53332;51.082;5.832;2024-03-22T11:27:04;14.26;118.99
66506;HTU21D;53332;51.082;5.832;2024-03-22T11:29:29;14.21;118.99
66506;HTU21D;53332;51.082;5.832;2024-03-22T11:31:55;14.15;118.99
66506;HTU21D;53332;51.082;5.832;2024-03-22T11:34:21;14.09;118.99
66506;HTU21D;53332;51.082;5.832;2024-03-22T11:36:46;14.07;118.99
66506;HTU21D;53332;51.082;5.832;2024-03-22T11:39:12;14.07;118.99
66506;HTU21D;53332;51.082;5.832;2024-03-22T11:41:39;14.09;118.99
66506;HTU21D;53332;51.082;5.832;2024-03-22T11:44:05;14.04;118.99
66506;HTU21D;53332;51.082;5.832;2024-03-22T11:46:31;13.98;118.99
66506;HTU21D;53332;51.082;5.832;2024-03-22T11:48:58;13.97;118.99
66506;HTU21D;53332;51.082;5.832;2024-03-22T11:51:24;14.00;118.99
66506;HTU21D;53332;51.082;5.832;2024-03-22T11:53:54;14.00;118.99
66506;HTU21D;53332;51.082;5.832;2024-03-22T11:56:22;14.00;118.99
66506;HTU21D;53332;51.082;5.832;2024-03-22T11:58:48;13.99;118.99
66506;HTU21D;53332;51.082;5.832;2024-03-22T12:01:15;13.94;118.99
66506;HTU21D;53332;51.082;5.832;2024-03-22T12:03:43;13.92;118.99
66506;HTU21D;53332;51.082;5.832;2024-03-22T12:06:10;13.89;118.99
66506;HTU21D;53332;51.082;5.832;2024-03-22T12:08:37;13.90;118.99
66506;HTU21D;53332;51.082;5.832;2024-03-22T12:11:04;13.90;118.99
66506;HTU21D;53332;51.082;5.832;2024-03-22T12:13:29;13.89;118.99
66506;HTU21D;53332;51.082;5.832;2024-03-22T12:15:55;13.90;118.99
66506;HTU21D;53332;51.082;5.832;2024-03-22T12:18:20;13.95;118.99
66506;HTU21D;53332;51.082;5.832;2024-03-22T12:20:46;13.99;118.99
66506;HTU21D;53332;51.082;5.832;2024-03-22T12:23:12;14.00;118.99
66506;HTU21D;53332;51.082;5.832;2024-03-22T12:25:37;14.03;118.99
66506;HTU21D;53332;51.082;5.832;2024-03-22T12:28:03;14.06;118.99
66506;HTU21D;53332;51.082;5.832;2024-03-22T12:30:29;14.12;118.99
66506;HTU21D;53332;51.082;5.832;2024-03-22T12:32:56;14.13;118.99
66506;HTU21D;53332;51.082;5.832;2024-03-22T12:35:21;14.11;118.99
66506;HTU21D;53332;51.082;5.832;2024-03-22T12:37:47;14.12;118.99
66506;HTU21D;53332;51.082;5.832;2024-03-22T12:40:12;14.13;118.99
66506;HTU21D;53332;51.082;5.832;2024-03-22T12:42:40;14.15;118.99
66506;HTU21D;53332;51.082;5.832;2024-03-22T12:45:06;14.19;118.99
66506;HTU21D;53332;51.082;5.832;2024-03-22T12:47:33;14.28;118.99
66506;HTU21D;53332;51.082;5.832;2024-03-22T12:49:58;14.29;118.99
66506;HTU21D;53332;51.082;5.832;2024-03-22T12:52:24;14.27;118.99
66506;HTU21D;53332;51.082;5.832;2024-03-22T12:54:49;14.28;118.99
66506;HTU21D;53332;51.082;5.832;2024-03-22T12:57:15;14.29;118.99
66506;HTU21D;53332;51.082;5.832;2024-03-22T12:59:40;14.24;118.99
66506;HTU21D;53332;51.082;5.832;2024-03-22T13:02:07;14.19;118.99
66506;HTU21D;53332;51.082;5.832;2024-03-22T13:04:33;14.15;118.99
66506;HTU21D;53332;51.082;5.832;2024-03-22T13:06:59;14.11;118.99
66506;HTU21D;53332;51.082;5.832;2024-03-22T13:09:24;14.15;118.99
66506;HTU21D;53332;51.082;5.832;2024-03-22T13:11:50;14.19;118.99
66506;HTU21D;53332;51.082;5.832;2024-03-22T13:14:15;14.14;118.99
66506;HTU21D;53332;51.082;5.832;2024-03-22T13:16:41;14.09;118.99
66506;HTU21D;53332;51.082;5.832;2024-03-22T13:19:06;14.06;118.99
66506;HTU21D;53332;51.082;5.832;2024-03-22T13:21:38;14.07;118.99
66506;HTU21D;53332;51.082;5.832;2024-03-22T13:24:03;14.05;118.99
66506;HTU21D;53332;51.082;5.832;2024-03-22T13:26:29;14.07;118.99
66506;HTU21D;53332;51.082;5.832;2024-03-22T13:28:54;14.00;118.99
66506;HTU21D;53332;51.082;5.832;2024-03-22T13:31:20;13.96;118.99
66506;HTU21D;53332;51.082;5.832;2024-03-22T13:33:45;13.91;118.99
66506;HTU21D;53332;51.082;5.832;2024-03-22T13:36:12;13.82;118.99
66506;HTU21D;53332;51.082;5.832;2024-03-22T13:38:38;13.81;118.99
66506;HTU21D;53332;51.082;5.832;2024-03-22T13:41:03;13.81;118.99
66506;HTU21D;53332;51.082;5.832;2024-03-22T13:43:31;13.80;118.99
66506;HTU21D;53332;51.082;5.832;2024-03-22T13:45:57;13.79;118.99
66506;HTU21D;53332;51.082;5.832;2024-03-22T13:48:24;13.77;118.99
66506;HTU21D;53332;51.082;5.832;2024-03-22T13:50:57;13.75;118.99
66506;HTU21D;53332;51.082;5.832;2024-03-22T13:53:23;13.71;118.99
66506;HTU21D;53332;51.082;5.832;2024-03-22T13:55:51;13.69;118.99
66506;HTU21D;53332;51.082;5.832;2024-03-22T13:58:20;13.67;118.99
66506;HTU21D;53332;51.082;5.832;2024-03-22T14:00:45;13.65;118.99
66506;HTU21D;53332;51.082;5.832;2024-03-22T14:03:11;13.62;118.99
66506;HTU21D;53332;51.082;5.832;2024-03-22T14:05:36;13.55;118.99
66506;HTU21D;53332;51.082;5.832;2024-03-22T14:08:02;13.51;118.99
66506;HTU21D;53332;51.082;5.832;2024-03-22T14:10:29;13.47;118.99
66506;HTU21D;53332;51.082;5.832;2024-03-22T14:12:57;13.40;118.99
66506;HTU21D;53332;51.082;5.832;2024-03-22T14:15:23;13.37;118.99
66506;HTU21D;53332;51.082;5.832;2024-03-22T14:17:54;13.34;118.99
66506;HTU21D;53332;51.082;5.832;2024-03-22T14:20:20;13.32;118.99
66506;HTU21D;53332;51.082;5.832;2024-03-22T14:22:46;13.31;118.99
66506;HTU21D;53332;51.082;5.832;2024-03-22T14:25:12;13.32;118.99
66506;HTU21D;53332;51.082;5.832;2024-03-22T14:27:38;13.29;118.99
66506;HTU21D;53332;51.082;5.832;2024-03-22T14:30:05;13.24;118.99
66506;HTU21D;53332;51.082;5.832;2024-03-22T14:32:34;13.22;118.99
66506;HTU21D;53332;51.082;5.832;2024-03-22T14:35:00;13.19;118.99
66506;HTU21D;53332;51.082;5.832;2024-03-22T14:37:25;13.19;118.99
66506;HTU21D;53332;51.082;5.832;2024-03-22T14:39:51;13.15;118.99
66506;HTU21D;53332;51.082;5.832;2024-03-22T14:42:17;13.14;118.99
66506;HTU21D;53332;51.082;5.832;2024-03-22T14:44:42;13.10;118.99
66506;HTU21D;53332;51.082;5.832;2024-03-22T14:47:08;13.07;118.99
66506;HTU21D;53332;51.082;5.832;2024-03-22T14:49:33;13.09;118.99
66506;HTU21D;53332;51.082;5.832;2024-03-22T14:51:59;13.06;118.99
66506;HTU21D;53332;51.082;5.832;2024-03-22T14:54:25;12.93;118.99
66506;HTU21D;53332;51.082;5.832;2024-03-22T14:56:51;12.82;118.99
66506;HTU21D;53332;51.082;5.832;2024-03-22T14:59:19;12.74;118.99